sensor_id;sensor_type;location;lat;lon;timestamp;pressure;altitude;pressure_sealevel;temperature;humidity
75006;BME280;63553;51.814;4.600;2023-06-04T00:02:11;102377.97;;;14.25;60.69
75006;BME280;63553;51.814;4.600;2023-06-04T00:04:36;102374.69;;;14.50;59.06
75006;BME280;63553;51.814;4.600;2023-06-04T00:07:01;102377.88;;;14.16;59.84
75006;BME280;63553;51.814;4.600;2023-06-04T00:09:27;102377.34;;;14.82;57.88
75006;BME280;63553;51.814;4.600;2023-06-04T00:11:52;102378.31;;;14.51;60.07
75006;BME280;63553;51.814;4.600;2023-06-04T00:14:18;102375.38;;;14.01;60.22
75006;BME280;63553;51.814;4.600;2023-06-04T00:16:43;102379.25;;;14.60;60.70
75006;BME280;63553;51.814;4.600;2023-06-04T00:19:08;102373.75;;;13.81;60.92
75006;BME280;63553;51.814;4.600;2023-06-04T00:21:34;102384.44;;;13.93;60.68
75006;BME280;63553;51.814;4.600;2023-06-04T00:24:00;102377.34;;;14.14;59.72
75006;BME280;63553;51.814;4.600;2023-06-04T00:26:26;102387.47;;;13.97;60.80
75006;BME280;63553;51.814;4.600;2023-06-04T00:28:53;102384.03;;;13.86;60.86
75006;BME280;63553;51.814;4.600;2023-06-04T00:31:19;102381.19;;;13.72;61.82
75006;BME280;63553;51.814;4.600;2023-06-04T00:33:44;102382.84;;;13.73;61.14
75006;BME280;63553;51.814;4.600;2023-06-04T00:36:09;102380.97;;;14.15;59.94
75006;BME280;63553;51.814;4.600;2023-06-04T00:38:35;102374.09;;;13.61;61.52
75006;BME280;63553;51.814;4.600;2023-06-04T00:41:00;102380.25;;;14.23;62.13
75006;BME280;63553;51.814;4.600;2023-06-04T00:43:25;102380.66;;;13.38;62.27
75006;BME280;63553;51.814;4.600;2023-06-04T00:45:53;102381.09;;;14.64;59.86
75006;BME280;63553;51.814;4.600;2023-06-04T00:48:19;102387.50;;;13.46;62.13
75006;BME280;63553;51.814;4.600;2023-06-04T00:50:44;102386.66;;;14.10;60.06
75006;BME280;63553;51.814;4.600;2023-06-04T00:53:10;102374.81;;;13.85;60.65
75006;BME280;63553;51.814;4.600;2023-06-04T00:55:36;102386.69;;;13.77;62.07
75006;BME280;63553;51.814;4.600;2023-06-04T00:58:01;102380.66;;;14.16;62.44
75006;BME280;63553;51.814;4.600;2023-06-04T01:00:29;102386.56;;;13.69;64.01
75006;BME280;63553;51.814;4.600;2023-06-04T01:02:55;102391.53;;;14.04;60.64
75006;BME280;63553;51.814;4.600;2023-06-04T01:05:31;102390.03;;;13.61;61.88
75006;BME280;63553;51.814;4.600;2023-06-04T01:07:59;102386.53;;;14.61;59.21
75006;BME280;63553;51.814;4.600;2023-06-04T01:10:25;102386.88;;;14.95;60.29
75006;BME280;63553;51.814;4.600;2023-06-04T01:12:51;102392.94;;;14.61;60.20
75006;BME280;63553;51.814;4.600;2023-06-04T01:15:16;102395.22;;;14.45;60.22
75006;BME280;63553;51.814;4.600;2023-06-04T01:17:44;102388.38;;;16.26;56.22
75006;BME280;63553;51.814;4.600;2023-06-04T01:27:56;102389.34;;;15.10;59.88
75006;BME280;63553;51.814;4.600;2023-06-04T01:30:26;102389.06;;;14.16;60.54
75006;BME280;63553;51.814;4.600;2023-06-04T01:32:56;102388.06;;;14.80;60.75
75006;BME280;63553;51.814;4.600;2023-06-04T01:35:22;102394.28;;;15.85;56.27
75006;BME280;63553;51.814;4.600;2023-06-04T01:37:48;102388.28;;;14.43;61.22
75006;BME280;63553;51.814;4.600;2023-06-04T01:40:14;102388.81;;;14.45;59.90
75006;BME280;63553;51.814;4.600;2023-06-04T01:42:41;102388.09;;;15.16;58.74
75006;BME280;63553;51.814;4.600;2023-06-04T01:45:07;102383.59;;;14.52;60.78
75006;BME280;63553;51.814;4.600;2023-06-04T01:47:33;102381.91;;;14.24;61.19
75006;BME280;63553;51.814;4.600;2023-06-04T01:49:59;102391.13;;;12.66;65.85
75006;BME280;63553;51.814;4.600;2023-06-04T01:52:24;102377.94;;;14.11;61.44
75006;BME280;63553;51.814;4.600;2023-06-04T01:54:49;102376.19;;;13.18;65.84
75006;BME280;63553;51.814;4.600;2023-06-04T01:57:21;102373.16;;;12.96;64.13
75006;BME280;63553;51.814;4.600;2023-06-04T01:59:47;102365.31;;;14.00;60.76
75006;BME280;63553;51.814;4.600;2023-06-04T02:02:13;102369.66;;;13.93;63.05
75006;BME280;63553;51.814;4.600;2023-06-04T02:04:39;102372.88;;;13.67;62.64
75006;BME280;63553;51.814;4.600;2023-06-04T02:07:07;102369.56;;;13.14;63.66
75006;BME280;63553;51.814;4.600;2023-06-04T02:09:33;102368.03;;;13.41;62.32
75006;BME280;63553;51.814;4.600;2023-06-04T02:12:00;102375.84;;;12.40;66.38
75006;BME280;63553;51.814;4.600;2023-06-04T02:14:25;102379.16;;;12.42;65.93
75006;BME280;63553;51.814;4.600;2023-06-04T02:16:50;102372.16;;;12.45;66.16
75006;BME280;63553;51.814;4.600;2023-06-04T02:19:16;102373.72;;;13.17;63.46
75006;BME280;63553;51.814;4.600;2023-06-04T02:21:44;102377.53;;;13.02;64.60
75006;BME280;63553;51.814;4.600;2023-06-04T02:24:09;102368.00;;;12.85;64.77
75006;BME280;63553;51.814;4.600;2023-06-04T02:26:34;102372.97;;;12.69;65.01
75006;BME280;63553;51.814;4.600;2023-06-04T02:29:00;102380.28;;;12.17;66.62
75006;BME280;63553;51.814;4.600;2023-06-04T02:31:25;102380.66;;;13.70;61.22
75006;BME280;63553;51.814;4.600;2023-06-04T02:33:50;102383.78;;;12.94;65.11
75006;BME280;63553;51.814;4.600;2023-06-04T02:36:15;102379.50;;;12.12;67.21
75006;BME280;63553;51.814;4.600;2023-06-04T02:38:42;102388.03;;;12.68;64.16
75006;BME280;63553;51.814;4.600;2023-06-04T02:41:08;102372.44;;;13.93;63.83
75006;BME280;63553;51.814;4.600;2023-06-04T02:43:33;102385.88;;;12.83;64.89
75006;BME280;63553;51.814;4.600;2023-06-04T02:45:58;102385.78;;;14.41;61.69
75006;BME280;63553;51.814;4.600;2023-06-04T02:48:24;102390.34;;;12.85;63.50
75006;BME280;63553;51.814;4.600;2023-06-04T02:50:49;102379.41;;;13.63;63.21
75006;BME280;63553;51.814;4.600;2023-06-04T02:53:14;102393.78;;;14.02;63.51
75006;BME280;63553;51.814;4.600;2023-06-04T02:55:40;102392.13;;;12.75;63.19
75006;BME280;63553;51.814;4.600;2023-06-04T02:58:06;102383.56;;;12.48;64.84
75006;BME280;63553;51.814;4.600;2023-06-04T03:00:34;102392.72;;;11.67;67.89
75006;BME280;63553;51.814;4.600;2023-06-04T03:03:00;102388.88;;;12.68;63.19
75006;BME280;63553;51.814;4.600;2023-06-04T03:05:28;102382.38;;;13.34;64.96
75006;BME280;63553;51.814;4.600;2023-06-04T03:07:55;102386.84;;;14.00;60.25
75006;BME280;63553;51.814;4.600;2023-06-04T03:10:22;102381.81;;;14.29;61.11
75006;BME280;63553;51.814;4.600;2023-06-04T03:12:47;102382.00;;;12.61;64.57
75006;BME280;63553;51.814;4.600;2023-06-04T03:15:13;102378.47;;;12.32;64.17
75006;BME280;63553;51.814;4.600;2023-06-04T03:17:38;102366.44;;;11.84;65.67
75006;BME280;63553;51.814;4.600;2023-06-04T03:20:04;102383.94;;;11.89;65.35
75006;BME280;63553;51.814;4.600;2023-06-04T03:22:30;102387.59;;;12.37;63.80
75006;BME280;63553;51.814;4.600;2023-06-04T03:24:55;102386.63;;;11.65;66.85
75006;BME280;63553;51.814;4.600;2023-06-04T03:27:21;102379.84;;;11.82;65.56
75006;BME280;63553;51.814;4.600;2023-06-04T03:29:46;102383.25;;;11.68;65.89
75006;BME280;63553;51.814;4.600;2023-06-04T03:32:12;102389.69;;;11.64;66.78
75006;BME280;63553;51.814;4.600;2023-06-04T03:34:37;102375.25;;;11.91;67.37
75006;BME280;63553;51.814;4.600;2023-06-04T03:37:03;102376.25;;;12.52;66.98
75006;BME280;63553;51.814;4.600;2023-06-04T03:39:28;102388.47;;;12.33;63.83
75006;BME280;63553;51.814;4.600;2023-06-04T03:41:54;102375.69;;;12.32;65.14
75006;BME280;63553;51.814;4.600;2023-06-04T03:44:21;102390.63;;;12.41;63.65
75006;BME280;63553;51.814;4.600;2023-06-04T03:46:47;102388.06;;;12.44;63.30
75006;BME280;63553;51.814;4.600;2023-06-04T03:49:13;102393.19;;;12.37;63.14
75006;BME280;63553;51.814;4.600;2023-06-04T03:51:40;102389.06;;;12.30;63.75
75006;BME280;63553;51.814;4.600;2023-06-04T03:54:06;102382.59;;;13.38;64.17
75006;BME280;63553;51.814;4.600;2023-06-04T03:56:31;102393.50;;;12.78;64.80
75006;BME280;63553;51.814;4.600;2023-06-04T03:58:57;102386.19;;;12.82;62.26
75006;BME280;63553;51.814;4.600;2023-06-04T04:01:22;102391.56;;;12.55;61.90
75006;BME280;63553;51.814;4.600;2023-06-04T04:03:51;102389.31;;;12.57;62.41
75006;BME280;63553;51.814;4.600;2023-06-04T04:06:17;102389.75;;;12.88;62.52
75006;BME280;63553;51.814;4.600;2023-06-04T04:08:43;102387.56;;;13.03;62.63
75006;BME280;63553;51.814;4.600;2023-06-04T04:11:09;102393.81;;;12.05;63.47
75006;BME280;63553;51.814;4.600;2023-06-04T04:13:35;102390.75;;;12.97;61.13
75006;BME280;63553;51.814;4.600;2023-06-04T04:16:01;102390.41;;;12.98;60.50
75006;BME280;63553;51.814;4.600;2023-06-04T04:18:27;102395.41;;;12.82;59.55
75006;BME280;63553;51.814;4.600;2023-06-04T04:20:52;102397.97;;;12.98;60.47
75006;BME280;63553;51.814;4.600;2023-06-04T04:23:17;102394.25;;;13.77;60.55
75006;BME280;63553;51.814;4.600;2023-06-04T04:25:43;102401.78;;;14.09;56.78
75006;BME280;63553;51.814;4.600;2023-06-04T04:28:13;102397.16;;;13.53;58.01
75006;BME280;63553;51.814;4.600;2023-06-04T04:30:39;102394.72;;;12.91;59.56
75006;BME280;63553;51.814;4.600;2023-06-04T04:33:05;102383.50;;;14.71;58.04
75006;BME280;63553;51.814;4.600;2023-06-04T04:35:31;102388.53;;;12.94;60.23
75006;BME280;63553;51.814;4.600;2023-06-04T04:37:58;102384.63;;;13.51;61.43
75006;BME280;63553;51.814;4.600;2023-06-04T04:40:24;102381.00;;;12.52;61.17
75006;BME280;63553;51.814;4.600;2023-06-04T04:42:50;102378.94;;;13.23;58.49
75006;BME280;63553;51.814;4.600;2023-06-04T04:45:15;102379.03;;;12.76;60.29
75006;BME280;63553;51.814;4.600;2023-06-04T04:47:42;102383.09;;;12.83;60.27
75006;BME280;63553;51.814;4.600;2023-06-04T04:50:07;102383.81;;;13.13;59.05
75006;BME280;63553;51.814;4.600;2023-06-04T04:52:33;102375.28;;;13.42;59.02
75006;BME280;63553;51.814;4.600;2023-06-04T04:54:58;102384.44;;;12.67;60.11
75006;BME280;63553;51.814;4.600;2023-06-04T04:57:23;102388.34;;;12.66;61.00
75006;BME280;63553;51.814;4.600;2023-06-04T04:59:49;102384.28;;;12.59;60.90
75006;BME280;63553;51.814;4.600;2023-06-04T05:02:15;102379.31;;;12.74;60.63
75006;BME280;63553;51.814;4.600;2023-06-04T05:04:40;102387.81;;;12.64;60.30
75006;BME280;63553;51.814;4.600;2023-06-04T05:07:06;102384.91;;;12.93;61.20
75006;BME280;63553;51.814;4.600;2023-06-04T05:09:31;102386.84;;;12.74;60.57
75006;BME280;63553;51.814;4.600;2023-06-04T05:11:56;102392.41;;;12.74;59.89
75006;BME280;63553;51.814;4.600;2023-06-04T05:14:22;102389.97;;;12.91;59.79
75006;BME280;63553;51.814;4.600;2023-06-04T05:16:48;102394.06;;;13.55;57.94
75006;BME280;63553;51.814;4.600;2023-06-04T05:19:15;102393.13;;;13.27;58.94
75006;BME280;63553;51.814;4.600;2023-06-04T05:21:41;102396.66;;;13.83;57.78
75006;BME280;63553;51.814;4.600;2023-06-04T05:24:07;102402.00;;;13.10;59.47
75006;BME280;63553;51.814;4.600;2023-06-04T05:26:33;102402.72;;;13.21;58.76
75006;BME280;63553;51.814;4.600;2023-06-04T05:28:58;102401.53;;;13.03;59.85
75006;BME280;63553;51.814;4.600;2023-06-04T05:31:24;102398.97;;;13.63;58.82
75006;BME280;63553;51.814;4.600;2023-06-04T05:33:51;102396.66;;;13.32;58.57
75006;BME280;63553;51.814;4.600;2023-06-04T05:36:17;102400.00;;;13.67;57.22
75006;BME280;63553;51.814;4.600;2023-06-04T05:38:42;102406.03;;;14.06;56.37
75006;BME280;63553;51.814;4.600;2023-06-04T05:41:08;102407.88;;;14.43;55.84
75006;BME280;63553;51.814;4.600;2023-06-04T05:43:33;102402.16;;;14.34;55.89
75006;BME280;63553;51.814;4.600;2023-06-04T05:45:58;102402.38;;;14.38;55.63
75006;BME280;63553;51.814;4.600;2023-06-04T05:48:24;102390.41;;;16.34;51.43
75006;BME280;63553;51.814;4.600;2023-06-04T05:50:49;102400.00;;;15.57;53.04
75006;BME280;63553;51.814;4.600;2023-06-04T05:53:15;102397.66;;;15.01;53.92
75006;BME280;63553;51.814;4.600;2023-06-04T05:55:41;102398.03;;;15.58;53.47
75006;BME280;63553;51.814;4.600;2023-06-04T05:58:06;102401.44;;;15.99;51.23
75006;BME280;63553;51.814;4.600;2023-06-04T06:00:31;102402.41;;;15.95;52.13
75006;BME280;63553;51.814;4.600;2023-06-04T06:02:57;102400.41;;;15.15;53.19
75006;BME280;63553;51.814;4.600;2023-06-04T06:05:22;102386.31;;;16.96;49.67
75006;BME280;63553;51.814;4.600;2023-06-04T06:07:48;102387.03;;;17.53;48.48
75006;BME280;63553;51.814;4.600;2023-06-04T06:10:13;102392.97;;;18.50;46.15
75006;BME280;63553;51.814;4.600;2023-06-04T06:12:39;102395.00;;;16.69;49.27
75006;BME280;63553;51.814;4.600;2023-06-04T06:15:05;102400.53;;;16.52;50.42
75006;BME280;63553;51.814;4.600;2023-06-04T06:17:31;102404.28;;;16.70;49.78
75006;BME280;63553;51.814;4.600;2023-06-04T06:19:56;102396.94;;;17.16;48.52
75006;BME280;63553;51.814;4.600;2023-06-04T06:22:22;102396.53;;;16.75;49.64
75006;BME280;63553;51.814;4.600;2023-06-04T06:24:47;102400.09;;;16.28;50.34
75006;BME280;63553;51.814;4.600;2023-06-04T06:27:16;102404.84;;;18.00;47.84
75006;BME280;63553;51.814;4.600;2023-06-04T06:29:42;102407.22;;;16.56;49.37
75006;BME280;63553;51.814;4.600;2023-06-04T06:32:09;102397.47;;;17.70;47.24
75006;BME280;63553;51.814;4.600;2023-06-04T06:34:34;102409.88;;;17.77;47.94
75006;BME280;63553;51.814;4.600;2023-06-04T06:37:00;102408.28;;;16.77;50.12
75006;BME280;63553;51.814;4.600;2023-06-04T06:39:25;102400.72;;;18.44;46.27
75006;BME280;63553;51.814;4.600;2023-06-04T06:41:50;102398.63;;;20.84;41.76
75006;BME280;63553;51.814;4.600;2023-06-04T06:44:16;102404.41;;;18.82;44.74
75006;BME280;63553;51.814;4.600;2023-06-04T06:46:41;102411.50;;;19.38;44.63
75006;BME280;63553;51.814;4.600;2023-06-04T06:49:06;102398.13;;;20.94;41.35
75006;BME280;63553;51.814;4.600;2023-06-04T06:51:32;102405.09;;;20.97;41.42
75006;BME280;63553;51.814;4.600;2023-06-04T06:53:57;102411.59;;;19.21;45.42
75006;BME280;63553;51.814;4.600;2023-06-04T06:56:22;102417.91;;;20.46;43.34
75006;BME280;63553;51.814;4.600;2023-06-04T06:58:48;102412.59;;;20.32;43.13
75006;BME280;63553;51.814;4.600;2023-06-04T07:01:13;102416.53;;;19.54;43.95
75006;BME280;63553;51.814;4.600;2023-06-04T07:03:39;102420.47;;;20.27;43.19
75006;BME280;63553;51.814;4.600;2023-06-04T07:06:08;102414.03;;;22.03;39.85
75006;BME280;63553;51.814;4.600;2023-06-04T07:08:34;102414.81;;;22.94;38.57
75006;BME280;63553;51.814;4.600;2023-06-04T07:11:02;102413.88;;;22.90;37.44
75006;BME280;63553;51.814;4.600;2023-06-04T07:13:27;102419.84;;;22.69;38.53
75006;BME280;63553;51.814;4.600;2023-06-04T07:15:53;102425.09;;;19.78;43.58
75006;BME280;63553;51.814;4.600;2023-06-04T07:18:18;102429.28;;;18.80;44.44
75006;BME280;63553;51.814;4.600;2023-06-04T07:20:44;102413.94;;;19.19;44.36
75006;BME280;63553;51.814;4.600;2023-06-04T07:23:09;102424.66;;;19.55;44.04
75006;BME280;63553;51.814;4.600;2023-06-04T07:25:35;102417.69;;;20.06;42.04
75006;BME280;63553;51.814;4.600;2023-06-04T07:28:00;102413.91;;;20.02;43.52
75006;BME280;63553;51.814;4.600;2023-06-04T07:30:30;102422.16;;;20.52;40.94
75006;BME280;63553;51.814;4.600;2023-06-04T07:32:57;102410.16;;;23.20;37.78
75006;BME280;63553;51.814;4.600;2023-06-04T07:35:23;102411.06;;;23.59;36.13
75006;BME280;63553;51.814;4.600;2023-06-04T07:37:49;102402.56;;;22.74;38.33
75006;BME280;63553;51.814;4.600;2023-06-04T07:40:14;102410.19;;;22.11;39.31
75006;BME280;63553;51.814;4.600;2023-06-04T07:42:41;102403.59;;;23.70;36.74
75006;BME280;63553;51.814;4.600;2023-06-04T07:45:07;102402.31;;;24.74;34.85
75006;BME280;63553;51.814;4.600;2023-06-04T07:47:33;102406.34;;;23.67;36.70
75006;BME280;63553;51.814;4.600;2023-06-04T07:49:59;102414.25;;;23.39;36.38
75006;BME280;63553;51.814;4.600;2023-06-04T07:52:25;102414.75;;;22.15;38.12
75006;BME280;63553;51.814;4.600;2023-06-04T07:54:50;102415.53;;;21.33;40.06
75006;BME280;63553;51.814;4.600;2023-06-04T07:57:16;102418.50;;;20.88;40.78
75006;BME280;63553;51.814;4.600;2023-06-04T07:59:41;102414.81;;;21.76;38.82
75006;BME280;63553;51.814;4.600;2023-06-04T08:02:07;102412.25;;;23.77;36.25
75006;BME280;63553;51.814;4.600;2023-06-04T08:04:32;102420.91;;;21.50;38.99
75006;BME280;63553;51.814;4.600;2023-06-04T08:06:58;102417.91;;;22.57;38.17
75006;BME280;63553;51.814;4.600;2023-06-04T08:09:23;102420.31;;;23.95;36.09
75006;BME280;63553;51.814;4.600;2023-06-04T08:11:49;102417.53;;;25.08;33.98
75006;BME280;63553;51.814;4.600;2023-06-04T08:14:14;102412.56;;;22.09;39.23
75006;BME280;63553;51.814;4.600;2023-06-04T08:16:40;102422.13;;;20.28;41.17
75006;BME280;63553;51.814;4.600;2023-06-04T08:19:06;102422.03;;;21.33;41.11
75006;BME280;63553;51.814;4.600;2023-06-04T08:21:33;102422.94;;;22.33;38.13
75006;BME280;63553;51.814;4.600;2023-06-04T08:23:59;102422.53;;;22.03;39.89
75006;BME280;63553;51.814;4.600;2023-06-04T08:26:24;102431.47;;;21.01;40.31
75006;BME280;63553;51.814;4.600;2023-06-04T08:28:51;102419.25;;;21.09;40.99
75006;BME280;63553;51.814;4.600;2023-06-04T08:31:16;102428.31;;;20.90;41.56
75006;BME280;63553;51.814;4.600;2023-06-04T08:33:42;102425.03;;;22.36;38.83
75006;BME280;63553;51.814;4.600;2023-06-04T08:36:08;102427.72;;;22.91;38.43
75006;BME280;63553;51.814;4.600;2023-06-04T08:38:33;102421.50;;;23.55;37.20
75006;BME280;63553;51.814;4.600;2023-06-04T08:41:08;102419.28;;;22.32;38.23
75006;BME280;63553;51.814;4.600;2023-06-04T08:43:36;102421.34;;;24.06;35.94
75006;BME280;63553;51.814;4.600;2023-06-04T08:46:04;102423.50;;;23.36;36.34
75006;BME280;63553;51.814;4.600;2023-06-04T08:48:34;102426.44;;;23.23;37.66
75006;BME280;63553;51.814;4.600;2023-06-04T08:51:02;102418.88;;;24.92;35.33
75006;BME280;63553;51.814;4.600;2023-06-04T08:53:27;102427.25;;;20.83;37.97
75006;BME280;63553;51.814;4.600;2023-06-04T08:55:53;102430.69;;;22.51;37.00
75006;BME280;63553;51.814;4.600;2023-06-04T08:58:19;102425.16;;;23.94;35.58
75006;BME280;63553;51.814;4.600;2023-06-04T09:00:45;102425.03;;;23.68;34.59
75006;BME280;63553;51.814;4.600;2023-06-04T09:03:10;102439.50;;;22.62;36.61
75006;BME280;63553;51.814;4.600;2023-06-04T09:05:38;102435.03;;;22.77;36.63
75006;BME280;63553;51.814;4.600;2023-06-04T09:08:06;102428.56;;;24.64;34.15
75006;BME280;63553;51.814;4.600;2023-06-04T09:10:35;102435.94;;;23.31;35.12
75006;BME280;63553;51.814;4.600;2023-06-04T09:13:02;102430.22;;;22.18;36.52
75006;BME280;63553;51.814;4.600;2023-06-04T09:15:28;102429.63;;;23.72;34.84
75006;BME280;63553;51.814;4.600;2023-06-04T09:17:53;102432.97;;;23.78;34.41
75006;BME280;63553;51.814;4.600;2023-06-04T09:20:23;102433.09;;;25.44;33.30
75006;BME280;63553;51.814;4.600;2023-06-04T09:22:49;102428.19;;;25.41;31.49
75006;BME280;63553;51.814;4.600;2023-06-04T09:25:22;102438.00;;;24.26;34.03
75006;BME280;63553;51.814;4.600;2023-06-04T09:27:48;102428.75;;;25.50;31.40
75006;BME280;63553;51.814;4.600;2023-06-04T09:30:14;102427.84;;;26.09;31.25
75006;BME280;63553;51.814;4.600;2023-06-04T09:32:39;102438.09;;;25.80;30.29
75006;BME280;63553;51.814;4.600;2023-06-04T09:35:15;102436.19;;;26.65;31.67
75006;BME280;63553;51.814;4.600;2023-06-04T09:37:42;102443.72;;;24.72;32.33
75006;BME280;63553;51.814;4.600;2023-06-04T09:40:08;102436.19;;;25.32;33.10
75006;BME280;63553;51.814;4.600;2023-06-04T09:42:47;102448.84;;;22.94;35.65
75006;BME280;63553;51.814;4.600;2023-06-04T09:45:30;102436.16;;;23.76;33.99
75006;BME280;63553;51.814;4.600;2023-06-04T09:47:57;102437.34;;;24.33;33.17
75006;BME280;63553;51.814;4.600;2023-06-04T09:50:26;102443.75;;;22.68;35.34
75006;BME280;63553;51.814;4.600;2023-06-04T09:52:52;102438.19;;;23.22;35.31
75006;BME280;63553;51.814;4.600;2023-06-04T09:55:18;102438.78;;;22.81;34.98
75006;BME280;63553;51.814;4.600;2023-06-04T09:57:49;102434.31;;;23.65;34.61
75006;BME280;63553;51.814;4.600;2023-06-04T10:00:18;102435.34;;;22.72;33.78
75006;BME280;63553;51.814;4.600;2023-06-04T10:02:44;102431.25;;;23.54;33.08
75006;BME280;63553;51.814;4.600;2023-06-04T10:05:11;102435.31;;;24.11;33.29
75006;BME280;63553;51.814;4.600;2023-06-04T10:07:43;102438.50;;;23.71;32.26
75006;BME280;63553;51.814;4.600;2023-06-04T10:10:17;102432.25;;;21.90;34.91
75006;BME280;63553;51.814;4.600;2023-06-04T10:12:43;102436.34;;;22.20;36.51
75006;BME280;63553;51.814;4.600;2023-06-04T10:15:12;102423.66;;;23.08;33.82
75006;BME280;63553;51.814;4.600;2023-06-04T10:17:38;102423.19;;;23.06;33.75
75006;BME280;63553;51.814;4.600;2023-06-04T10:20:05;102423.63;;;22.14;34.93
75006;BME280;63553;51.814;4.600;2023-06-04T10:22:31;102430.06;;;22.27;34.38
75006;BME280;63553;51.814;4.600;2023-06-04T10:25:00;102433.72;;;22.43;34.44
75006;BME280;63553;51.814;4.600;2023-06-04T10:27:25;102437.56;;;21.91;33.67
75006;BME280;63553;51.814;4.600;2023-06-04T10:29:51;102432.66;;;22.04;35.74
75006;BME280;63553;51.814;4.600;2023-06-04T10:32:17;102436.19;;;21.73;36.75
75006;BME280;63553;51.814;4.600;2023-06-04T10:34:43;102439.69;;;21.94;35.27
75006;BME280;63553;51.814;4.600;2023-06-04T10:37:25;102429.63;;;22.56;35.12
75006;BME280;63553;51.814;4.600;2023-06-04T10:39:54;102438.69;;;22.02;35.08
75006;BME280;63553;51.814;4.600;2023-06-04T10:42:21;102429.63;;;21.97;35.01
75006;BME280;63553;51.814;4.600;2023-06-04T10:44:48;102429.81;;;21.24;35.10
75006;BME280;63553;51.814;4.600;2023-06-04T10:47:25;102436.38;;;21.80;35.74
75006;BME280;63553;51.814;4.600;2023-06-04T10:49:52;102423.03;;;22.99;34.98
75006;BME280;63553;51.814;4.600;2023-06-04T10:52:18;102424.13;;;22.32;35.78
75006;BME280;63553;51.814;4.600;2023-06-04T10:54:44;102425.09;;;22.08;35.88
75006;BME280;63553;51.814;4.600;2023-06-04T10:57:17;102433.38;;;21.73;35.57
75006;BME280;63553;51.814;4.600;2023-06-04T10:59:56;102431.41;;;21.89;35.95
75006;BME280;63553;51.814;4.600;2023-06-04T11:02:21;102430.81;;;21.96;36.04
75006;BME280;63553;51.814;4.600;2023-06-04T11:04:47;102427.06;;;21.52;36.17
75006;BME280;63553;51.814;4.600;2023-06-04T11:07:12;102424.66;;;22.37;37.10
75006;BME280;63553;51.814;4.600;2023-06-04T11:09:47;102421.19;;;22.28;34.72
75006;BME280;63553;51.814;4.600;2023-06-04T11:12:13;102427.66;;;22.13;35.34
75006;BME280;63553;51.814;4.600;2023-06-04T11:14:38;102419.63;;;21.47;35.95
75006;BME280;63553;51.814;4.600;2023-06-04T11:17:11;102414.28;;;21.86;35.09
75006;BME280;63553;51.814;4.600;2023-06-04T11:19:37;102422.88;;;20.97;37.04
75006;BME280;63553;51.814;4.600;2023-06-04T11:22:04;102423.63;;;22.14;37.25
75006;BME280;63553;51.814;4.600;2023-06-04T11:24:30;102420.34;;;22.12;36.23
75006;BME280;63553;51.814;4.600;2023-06-04T11:26:57;102411.59;;;21.89;35.82
75006;BME280;63553;51.814;4.600;2023-06-04T11:29:25;102405.84;;;22.29;37.14
75006;BME280;63553;51.814;4.600;2023-06-04T11:31:50;102403.16;;;21.65;36.40
75006;BME280;63553;51.814;4.600;2023-06-04T11:34:26;102412.56;;;22.25;37.27
75006;BME280;63553;51.814;4.600;2023-06-04T11:36:51;102401.25;;;22.25;35.23
75006;BME280;63553;51.814;4.600;2023-06-04T11:39:20;102406.56;;;22.26;36.38
75006;BME280;63553;51.814;4.600;2023-06-04T11:44:12;102393.13;;;22.23;36.71
75006;BME280;63553;51.814;4.600;2023-06-04T11:46:42;102395.09;;;22.07;37.83
75006;BME280;63553;51.814;4.600;2023-06-04T11:49:17;102400.25;;;22.48;36.73
75006;BME280;63553;51.814;4.600;2023-06-04T11:51:50;102402.28;;;22.32;34.35
75006;BME280;63553;51.814;4.600;2023-06-04T11:54:17;102399.78;;;22.93;33.90
75006;BME280;63553;51.814;4.600;2023-06-04T11:56:43;102401.06;;;22.18;34.99
75006;BME280;63553;51.814;4.600;2023-06-04T11:59:10;102395.06;;;22.50;35.87
75006;BME280;63553;51.814;4.600;2023-06-04T12:01:42;102387.25;;;22.63;36.17
75006;BME280;63553;51.814;4.600;2023-06-04T12:06:51;102382.59;;;22.08;34.89
75006;BME280;63553;51.814;4.600;2023-06-04T12:09:21;102378.69;;;22.28;35.38
75006;BME280;63553;51.814;4.600;2023-06-04T12:11:47;102385.72;;;22.34;37.47
75006;BME280;63553;51.814;4.600;2023-06-04T12:14:16;102392.09;;;22.15;36.71
75006;BME280;63553;51.814;4.600;2023-06-04T12:16:42;102388.91;;;22.17;33.84
75006;BME280;63553;51.814;4.600;2023-06-04T12:19:10;102389.28;;;21.60;36.62
75006;BME280;63553;51.814;4.600;2023-06-04T12:21:36;102391.38;;;22.19;35.04
75006;BME280;63553;51.814;4.600;2023-06-04T12:26:34;102380.06;;;21.63;35.15
75006;BME280;63553;51.814;4.600;2023-06-04T12:29:09;102376.78;;;21.21;35.72
75006;BME280;63553;51.814;4.600;2023-06-04T12:31:36;102377.75;;;22.08;36.48
75006;BME280;63553;51.814;4.600;2023-06-04T12:34:01;102374.09;;;22.08;39.18
75006;BME280;63553;51.814;4.600;2023-06-04T12:36:27;102376.84;;;21.49;41.32
75006;BME280;63553;51.814;4.600;2023-06-04T12:38:55;102378.56;;;21.81;40.78
75006;BME280;63553;51.814;4.600;2023-06-04T12:41:21;102374.44;;;22.06;41.38
75006;BME280;63553;51.814;4.600;2023-06-04T12:43:46;102362.38;;;22.09;40.28
75006;BME280;63553;51.814;4.600;2023-06-04T12:46:11;102378.66;;;21.97;41.13
75006;BME280;63553;51.814;4.600;2023-06-04T12:48:37;102385.50;;;21.96;41.28
75006;BME280;63553;51.814;4.600;2023-06-04T12:51:02;102367.53;;;20.84;43.80
75006;BME280;63553;51.814;4.600;2023-06-04T12:53:28;102372.34;;;21.76;42.13
75006;BME280;63553;51.814;4.600;2023-06-04T12:55:53;102379.13;;;21.87;42.37
75006;BME280;63553;51.814;4.600;2023-06-04T12:58:18;102378.00;;;22.03;42.24
75006;BME280;63553;51.814;4.600;2023-06-04T13:00:43;102374.06;;;21.92;42.62
75006;BME280;63553;51.814;4.600;2023-06-04T13:03:09;102380.97;;;22.38;41.49